Country
Station

 

Weather  for  Kenieba  -  Mali    Mali

  
31 °C (88 °F)
    
 
 

Current METAR for Kenieba is :

GAKA 310600Z 28004KT 9000 NSC 31/20 Q1010

 

This is a report for Kenieba - Mali.
 
The report was made 494 hours and 23 minutes ago, at 06:00 UTC .
The wind was blowing at a speed of 2.1 meters per second (4.6 miles per hour) from west (280°).
 
The temperature was 31 °C (88 °F), with a dew-point at 20 °C (68 °F).
The temperature felt like 33 °C (92 °F).
 
The atmospheric pressure was 1010 hPa (29.83 inHg).
The relative humidity was 52.0%.
 
The overall visibility was 9.0 kilometers (5.6 miles).
 

 
 
 
 

Country :   A   B   C   D   E   F   G   H   I   J   K   L   M   N   O   P   Q   R   S   T   U   V   W   Y   Z

 

Site Info  |  Disclaimer  |  Credits  |  Privacy
Contact us  |  Add to favorites
© 2013-2019 METARs - All rights reserved